Sawyer County Airport
KHYR : now visible

Airfield :











YOU CAN JOIN US ON...

 
LOGIN :

Register | Disclaimer

   EN    FR    IT 

 









Legend :    VFR   Marginal VFR   IFR   Intensive IFR   Very Intensive IFR
Visi :
Ceiling :
>= 8 km
>= 3000ft
5 to 8 km
1000 to 3000 ft
1500m to 5 km
500 to 1000 ft
800 to 1500m
200 to 500 ft
< 800m
< 200 ft
Symbols :   Thunderstorms  Fog  Heavy snow  Heavy precipitations  Wind > 20 kt







- Airport Elevation : 1216 ft


KHYR - Sawyer County

CURRENT METAR :
  • 181853Z AUTO 20013G18KT 10SM FEW029 SCT033 BKN040 28/21 A2968 RMK AO2 TSE02 SLP044 T02780211

EXPIRED METARs :
  • 181807Z AUTO 33006KT 10SM BKN027 BKN042 OVC075 24/20 A2970 RMK AO2 LTG DSNT N AND NE TSE02 T02390200
  • 181753Z AUTO 22010G19KT 10SM TS SCT021 BKN044 OVC075 26/21 A2968 RMK AO2 LTG DSNT N AND NE TSB47 SLP045 60027 T02560206 10261 20211 58016
  • 181745Z AUTO 19015G20KT 10SM SCT020 BKN038 BKN080 26/21 A2967 RMK AO2 LTG DSNT N T02560211
  • 181653Z AUTO 18009KT 10SM BKN017 OVC024 25/22 A2971 RMK AO2 SLP054 T02500217
  • 181605Z AUTO 19009KT 10SM OVC016 24/22 A2972 RMK AO2 T02440217

TAF KHYR
Valid from the 18 at 18:00 until the 19 at 18:00 UTC


181730Z 1818/1918 20009KT P6SM BKN016 BKN040
TEMPO 1818/1821 4SM -TSRA BR OVC016CB
FM190100 VRB03KT P6SM SCT030
FM190800 VRB03KT 3SM BR SCT010
FM191300 20004KT P6SM BKN100
KZMP FIR / North America



MET'MAP, your aeronautical weather chart ! - Copyright ORBIFLY December 2007 - Disclaimer

ORBIFLY MET'MAP TEAM :

Programming & Development : Alexandra Zaïnal
Concept & Development : Baudouin d'Aumeries
Co-Development & Prog : Marc-Olivier Méhu
Technical & hardware support : Manuel Goepfert

Contact : metmap@orbifly.com




SOURCES & CREDITS :

   NOAA       Earth
Advisory